Time;durP1;ratioP1;P1;durP2;ratioP2;P2;SDS_P1;SDS_P2;PMS_P1;PMS_P2;Temp;Humidity;BMP_temperature;BMP_pressure;BME280_temperature;BME280_humidity;BME280_pressure;Samples;Min_cycle;Max_cycle;Signal;HPM_P1;HPM_P2
2022/11/03 00:01:33;;;;;;;23.70;12.00;;;;;;;10.24;87.22;101370.94;5034190;28;20394;-66
2022/11/03 00:03:58;;;;;;;22.63;12.60;;;;;;;10.23;86.83;101366.53;5034168;28;20061;-65
2022/11/03 00:06:23;;;;;;;21.83;11.65;;;;;;;10.22;87.19;101362.09;5034144;28;20064;-66
2022/11/03 00:08:49;;;;;;;22.38;11.57;;;;;;;10.20;87.28;101361.59;5034550;28;20044;-66
2022/11/03 00:11:14;;;;;;;26.92;11.45;;;;;;;10.18;87.24;101344.47;5034056;28;20445;-65
2022/11/03 00:13:41;;;;;;;23.13;12.07;;;;;;;10.17;87.50;101356.63;5034245;28;20032;-66
2022/11/03 00:16:10;;;;;;;23.92;11.60;;;;;;;10.14;87.29;101345.03;5034221;28;20067;-65
2022/11/03 00:18:35;;;;;;;21.42;11.60;;;;;;;10.15;87.37;101348.66;5033984;28;20050;-66
2022/11/03 00:21:06;;;;;;;22.50;10.70;;;;;;;10.14;87.34;101347.81;5034024;28;20079;-65
2022/11/03 00:23:38;;;;;;;24.23;11.10;;;;;;;10.17;87.52;101342.81;5015935;28;20041;-66
2022/11/03 00:26:05;;;;;;;22.95;11.85;;;;;;;10.13;86.96;101331.53;5033938;28;20038;-65
2022/11/03 00:28:32;;;;;;;21.17;10.88;;;;;;;10.19;87.41;101337.81;5033708;28;20025;-65
2022/11/03 00:30:58;;;;;;;22.15;11.75;;;;;;;10.19;87.08;101341.41;5033834;28;20213;-66
2022/11/03 00:33:26;;;;;;;23.48;11.80;;;;;;;10.20;87.03;101331.19;5033916;28;20028;-66
2022/11/03 00:35:59;;;;;;;22.60;11.45;;;;;;;10.18;86.84;101334.22;5033098;28;20155;-66
2022/11/03 00:38:24;;;;;;;20.58;11.90;;;;;;;10.15;87.37;101323.75;5033852;28;20040;-66
2022/11/03 00:40:57;;;;;;;22.58;11.73;;;;;;;10.15;87.38;101327.34;5029497;28;20029;-66
2022/11/03 00:43:24;;;;;;;23.13;11.25;;;;;;;10.13;87.31;101314.94;5033965;28;20104;-66
2022/11/03 00:45:49;;;;;;;22.73;11.50;;;;;;;10.13;87.25;101321.28;5029297;28;20594;-66
2022/11/03 00:48:33;;;;;;;21.48;11.20;;;;;;;10.14;87.39;101308.28;5033464;28;20100;-66
2022/11/03 00:51:12;;;;;;;21.55;11.65;;;;;;;10.13;87.15;101298.34;5033528;28;20076;-65
2022/11/03 00:53:44;;;;;;;21.13;11.38;;;;;;;10.13;87.45;101301.09;5033484;28;20109;-65
2022/11/03 00:56:15;;;;;;;21.27;13.07;;;;;;;10.09;87.81;101283.44;5033167;28;20037;-66
2022/11/03 00:58:41;;;;;;;21.95;11.48;;;;;;;10.13;87.68;101290.84;5032827;28;20460;-66
2022/11/03 01:01:10;;;;;;;22.55;11.25;;;;;;;10.11;87.37;101292.28;5032600;28;20021;-63
2022/11/03 01:03:37;;;;;;;20.27;11.50;;;;;;;10.12;87.61;101283.69;5032363;28;20148;-63
2022/11/03 01:08:54;;;;;;;22.33;11.10;;;;;;;10.15;87.54;101274.81;5053140;28;20154;-64
2022/11/03 01:14:07;;;;;;;20.90;11.20;;;;;;;10.17;87.35;101257.91;5052672;28;20066;-64
2022/11/03 01:16:33;;;;;;;21.92;11.13;;;;;;;10.17;87.67;101266.22;5052365;28;20443;-63
2022/11/03 01:18:59;;;;;;;20.63;11.15;;;;;;;10.18;87.70;101258.75;5052892;28;20049;-63
2022/11/03 01:21:24;;;;;;;22.67;11.77;;;;;;;10.18;87.73;101261.53;5052583;28;20055;-65
2022/11/03 01:23:49;;;;;;;19.25;10.52;;;;;;;10.19;87.09;101268.72;5052708;28;20032;-65
2022/11/03 01:26:15;;;;;;;20.80;11.45;;;;;;;10.19;87.56;101258.47;5052717;28;20031;-65
2022/11/03 01:28:43;;;;;;;22.80;10.70;;;;;;;10.17;87.43;101248.81;5052706;28;20344;-65
2022/11/03 01:31:14;;;;;;;20.08;10.52;;;;;;;10.18;87.64;101245.75;5052318;28;20151;-65
2022/11/03 01:33:40;;;;;;;23.15;11.02;;;;;;;10.21;87.60;101245.16;5051983;28;20029;-64
2022/11/03 01:36:06;;;;;;;18.60;11.07;;;;;;;10.26;87.55;101239.56;5052272;28;20068;-64
2022/11/03 01:38:33;;;;;;;23.65;11.30;;;;;;;10.27;87.14;101229.34;5052441;28;20024;-66
2022/11/03 01:41:00;;;;;;;19.92;10.38;;;;;;;10.30;87.12;101239.78;5042212;28;20025;-66
2022/11/03 01:43:27;;;;;;;21.08;10.85;;;;;;;10.29;87.49;101224.34;5052117;28;20075;-66
2022/11/03 01:46:19;;;;;;;24.95;11.55;;;;;;;10.32;87.28;101234.81;5052516;28;20499;-65
2022/11/03 01:48:48;;;;;;;22.55;11.35;;;;;;;10.28;87.41;101225.47;5051223;28;20048;-66
2022/11/03 01:51:19;;;;;;;21.52;11.80;;;;;;;10.31;87.67;101227.63;5052437;28;20124;-68
2022/11/03 01:53:47;;;;;;;21.00;11.40;;;;;;;10.24;87.47;101207.81;5052539;28;20464;-68
2022/11/03 01:56:14;;;;;;;21.20;11.13;;;;;;;10.24;87.90;101210.56;5051683;28;20456;-66
2022/11/03 01:58:43;;;;;;;19.52;11.30;;;;;;;10.22;87.99;101210.88;5052028;28;20112;-65
2022/11/03 02:01:09;;;;;;;19.23;10.95;;;;;;;10.21;88.07;101203.69;5034475;28;20051;-64
2022/11/03 02:03:39;;;;;;;21.20;11.60;;;;;;;10.21;88.19;101216.69;5052297;28;20055;-66
2022/11/03 02:06:06;;;;;;;22.10;11.32;;;;;;;10.21;88.42;101208.38;5052489;28;20029;-65
2022/11/03 02:08:44;;;;;;;19.52;10.75;;;;;;;10.21;88.42;101200.94;5052383;28;20021;-65
2022/11/03 02:13:54;;;;;;;22.52;11.35;;;;;;;10.23;88.60;101198.69;5051906;28;20476;-66
2022/11/03 02:16:23;;;;;;;21.10;11.02;;;;;;;10.24;88.95;101193.97;5051404;28;20037;-65
2022/11/03 02:18:50;;;;;;;22.00;11.45;;;;;;;10.22;89.15;101191.53;5051832;28;20081;-65
2022/11/03 02:21:27;;;;;;;21.70;10.73;;;;;;;10.23;89.01;101190.41;5051872;28;20413;-63
2022/11/03 02:24:07;;;;;;;21.30;11.35;;;;;;;10.22;88.95;101179.63;5051830;28;20025;-63
2022/11/03 02:26:33;;;;;;;21.38;11.20;;;;;;;10.26;89.19;101175.97;5051730;28;20025;-63
2022/11/03 02:28:59;;;;;;;19.70;11.38;;;;;;;10.28;89.25;101170.16;5050964;28;20036;-64
2022/11/03 02:31:49;;;;;;;20.10;10.57;;;;;;;10.27;88.87;101166.56;5051331;28;20121;-65
2022/11/03 02:34:37;;;;;;;20.52;10.75;;;;;;;10.35;88.61;101169.78;5051841;28;20108;-66
2022/11/03 02:37:15;;;;;;;20.35;11.73;;;;;;;10.33;88.59;101152.69;5046982;28;20124;-65
2022/11/03 02:39:47;;;;;;;20.70;11.40;;;;;;;10.35;89.02;101144.88;5051949;28;20028;-65
2022/11/03 02:42:14;;;;;;;23.10;11.40;;;;;;;10.44;88.69;101159.72;5051691;28;20025;-67
2022/11/03 02:44:41;;;;;;;21.63;11.30;;;;;;;10.41;88.57;101143.75;5047452;28;20083;-67
2022/11/03 02:47:10;;;;;;;19.38;11.80;;;;;;;10.49;88.50;101139.47;5051568;28;20108;-67
2022/11/03 02:49:52;;;;;;;21.40;11.20;;;;;;;10.51;88.66;101143.59;5033453;28;20108;-67
2022/11/03 02:52:37;;;;;;;20.30;10.80;;;;;;;10.52;88.58;101145.25;5051519;28;20032;-67
2022/11/03 02:55:11;;;;;;;22.85;11.88;;;;;;;10.56;88.85;101131.66;5051483;28;20095;-66
2022/11/03 02:57:39;;;;;;;;;;;;;;;10.59;88.19;101133.78;5051485;28;20025;-66
2022/11/03 03:00:06;;;;;;;18.25;11.00;;;;;;;10.57;88.17;101114.75;5052975;28;19939;-67
2022/11/03 03:02:44;;;;;;;20.13;11.05;;;;;;;10.60;88.50;101119.69;5055031;28;20399;-67
2022/11/03 03:05:12;;;;;;;20.30;10.80;;;;;;;10.57;88.73;101109.19;5055498;28;20036;-68
2022/11/03 03:07:44;;;;;;;20.60;11.02;;;;;;;10.58;88.96;101116.38;5055202;28;20055;-66
2022/11/03 03:10:15;;;;;;;25.00;11.27;;;;;;;10.49;89.27;101101.59;5055132;28;20111;-65
2022/11/03 03:12:47;;;;;;;21.08;10.90;;;;;;;10.58;89.13;101116.38;5055537;28;20032;-67
2022/11/03 03:15:14;;;;;;;20.80;11.40;;;;;;;10.58;89.45;101104.50;5054874;28;20033;-65
2022/11/03 03:17:52;;;;;;;19.30;11.20;;;;;;;10.53;89.50;101093.50;5054634;28;20126;-65
2022/11/03 03:20:27;;;;;;;21.98;10.90;;;;;;;10.57;89.26;101091.78;5055339;28;20036;-65
2022/11/03 03:22:59;;;;;;;20.77;11.38;;;;;;;10.56;89.16;101076.31;5054950;28;20033;-66
2022/11/03 03:25:36;;;;;;;21.33;11.23;;;;;;;10.61;89.26;101090.06;5054733;28;20052;-66
2022/11/03 03:28:17;;;;;;;22.67;11.05;;;;;;;10.57;89.23;101084.31;5055041;28;20040;-66
2022/11/03 03:30:45;;;;;;;21.13;11.70;;;;;;;10.61;89.56;101074.28;5052442;28;20129;-65
2022/11/03 03:33:12;;;;;;;19.95;11.23;;;;;;;10.62;89.34;101080.63;5053464;28;20063;-65
2022/11/03 03:35:41;;;;;;;20.58;11.30;;;;;;;10.64;89.63;101072.03;5054884;28;20100;-65
2022/11/03 03:38:35;;;;;;;19.23;11.75;;;;;;;10.64;89.53;101067.34;5054967;28;20032;-66
2022/11/03 03:41:01;;;;;;;24.10;11.15;;;;;;;10.68;89.78;101078.63;5054272;28;20024;-66
2022/11/03 03:43:29;;;;;;;19.48;11.40;;;;;;;10.67;90.13;101069.50;5036848;28;20444;-66
2022/11/03 03:45:59;;;;;;;20.20;11.30;;;;;;;10.71;89.77;101053.13;5050550;28;20036;-66
2022/11/03 03:48:25;;;;;;;21.83;11.27;;;;;;;10.83;89.71;101074.78;5054456;28;20031;-66
2022/11/03 03:50:51;;;;;;;20.75;11.70;;;;;;;10.82;89.31;101064.81;5054540;28;20149;-65
2022/11/03 03:53:18;;;;;;;20.20;10.80;;;;;;;10.81;89.30;101064.03;5054770;28;20024;-66
2022/11/03 03:55:50;;;;;;;23.25;11.60;;;;;;;10.80;89.67;101056.84;5036222;28;20021;-66
2022/11/03 03:58:16;;;;;;;19.02;11.48;;;;;;;10.77;90.00;101046.38;5054141;28;20021;-65
2022/11/03 04:00:42;;;;;;;21.40;11.30;;;;;;;10.74;89.92;101045.03;5053872;28;20369;-68
2022/11/03 04:03:36;;;;;;;21.30;11.82;;;;;;;10.75;89.70;101035.63;5053774;28;20556;-68
2022/11/03 04:06:01;;;;;;;;;;;;;;;10.75;89.76;101032.84;5036860;28;20041;-67
2022/11/03 04:08:26;;;;;;;22.10;11.63;;;;;;;10.77;90.28;101035.28;5054403;28;19913;-67
2022/11/03 04:24:31;;;;;;;;;;;;;;;10.71;90.85;101029.03;5054817;28;20460;-66
2022/11/03 04:27:04;;;;;;;21.90;11.73;;;;;;;10.66;91.00;101023.59;5049763;28;19951;-69
2022/11/03 04:29:30;;;;;;;22.73;11.75;;;;;;;10.69;91.15;101022.16;5053990;28;20279;-66
2022/11/03 04:31:56;;;;;;;20.73;11.77;;;;;;;10.68;91.88;101028.81;5053980;28;20034;-66
2022/11/03 04:34:22;;;;;;;20.95;11.70;;;;;;;10.67;91.69;101024.41;5053504;28;20469;-67
2022/11/03 04:36:48;;;;;;;20.73;11.73;;;;;;;10.64;91.69;101020.31;5052595;28;20025;-68
2022/11/03 04:39:18;;;;;;;20.50;11.23;;;;;;;10.62;92.10;101017.00;5053404;28;20342;-63
2022/11/03 04:41:44;;;;;;;22.35;11.98;;;;;;;10.61;92.05;101010.66;5053582;28;20079;-68
2022/11/03 04:44:15;;;;;;;22.90;12.30;;;;;;;10.57;92.24;101001.31;5050399;28;20358;-67
2022/11/03 04:46:40;;;;;;;22.05;11.90;;;;;;;10.60;92.75;101005.41;5052982;28;20029;-64
2022/11/03 04:49:11;;;;;;;21.75;12.10;;;;;;;10.57;92.97;101011.56;5053733;28;20087;-65
2022/11/03 04:51:36;;;;;;;21.67;11.57;;;;;;;10.56;92.95;101007.16;5035836;28;20033;-65
2022/11/03 04:54:11;;;;;;;22.70;11.90;;;;;;;10.56;93.40;100998.84;5053629;28;20032;-65
2022/11/03 04:56:38;;;;;;;21.80;11.20;;;;;;;10.58;93.53;101000.19;5053228;28;20415;-65
2022/11/03 04:59:10;;;;;;;20.90;11.93;;;;;;;10.57;93.43;100997.75;5053717;28;20033;-66
2022/11/03 05:01:35;;;;;;;20.17;11.93;;;;;;;10.58;93.58;100989.13;5053246;28;20091;-66
2022/11/03 05:04:00;;;;;;;22.77;12.30;;;;;;;10.58;93.76;100991.91;5053060;28;20399;-66
2022/11/03 05:06:28;;;;;;;21.48;12.40;;;;;;;10.60;94.26;100986.88;5052771;28;20025;-66
2022/11/03 05:08:57;;;;;;;22.52;12.10;;;;;;;10.60;94.38;100975.81;5053280;28;20025;-65
2022/11/03 05:11:31;;;;;;;22.45;11.88;;;;;;;10.59;94.30;100967.81;5053492;28;20029;-66
2022/11/03 05:14:01;;;;;;;20.88;12.48;;;;;;;10.54;94.88;100963.19;5053113;28;20445;-66
2022/11/03 05:16:27;;;;;;;24.40;12.80;;;;;;;10.58;95.39;100968.97;5053220;28;20021;-66
2022/11/03 05:18:52;;;;;;;21.08;12.13;;;;;;;10.59;94.96;100971.41;5053371;28;20341;-67
2022/11/03 05:21:21;;;;;;;20.90;12.80;;;;;;;10.57;95.02;100962.59;5048438;28;20329;-66
2022/11/03 05:23:53;;;;;;;22.83;12.68;;;;;;;10.59;95.62;100965.03;5052539;28;20047;-66
2022/11/03 05:26:23;;;;;;;21.15;12.13;;;;;;;10.53;95.35;100957.97;5052726;28;20027;-66
2022/11/03 05:28:58;;;;;;;21.48;12.05;;;;;;;10.53;96.04;100946.91;5034913;28;20029;-66
2022/11/03 05:31:29;;;;;;;22.88;12.30;;;;;;;10.50;95.80;100942.81;5052657;28;20090;-67
2022/11/03 05:33:57;;;;;;;20.20;11.57;;;;;;;10.54;95.99;100937.47;5052834;28;20021;-66
2022/11/03 05:36:26;;;;;;;21.40;11.60;;;;;;;10.51;96.32;100940.84;5052461;28;20025;-67
2022/11/03 05:38:57;;;;;;;21.08;11.80;;;;;;;10.49;96.59;100926.50;5052987;28;20075;-66
2022/11/03 05:41:25;;;;;;;19.65;12.00;;;;;;;10.52;96.53;100935.03;5052925;28;20031;-66
2022/11/03 05:44:07;;;;;;;19.73;12.07;;;;;;;10.52;96.83;100929.50;5051455;28;20021;-65
2022/11/03 05:46:34;;;;;;;22.50;12.65;;;;;;;10.52;97.11;100932.25;5050965;28;20067;-64
2022/11/03 05:49:01;;;;;;;22.15;12.73;;;;;;;10.49;97.33;100919.03;5052355;28;20040;-65
2022/11/03 05:51:31;;;;;;;22.15;12.52;;;;;;;10.52;97.83;100923.97;5051575;28;20036;-68
2022/11/03 05:54:01;;;;;;;20.27;12.10;;;;;;;10.51;97.80;100919.56;5051949;28;20052;-68
2022/11/03 05:56:26;;;;;;;19.77;12.55;;;;;;;10.54;97.93;100918.13;5051625;28;20020;-68
2022/11/03 05:58:55;;;;;;;23.55;12.63;;;;;;;10.53;98.15;100910.94;5052485;28;20016;-68
2022/11/03 06:01:37;;;;;;;23.15;12.68;;;;;;;10.55;98.21;100908.69;5051924;28;20533;-67
2022/11/03 06:04:14;;;;;;;23.02;12.60;;;;;;;10.53;97.90;100905.41;5052315;28;20048;-67
2022/11/03 06:06:40;;;;;;;22.65;12.10;;;;;;;10.54;98.50;100909.81;5052169;28;20033;-67
2022/11/03 06:09:17;;;;;;;21.77;12.18;;;;;;;10.52;98.55;100898.22;5052173;28;20036;-67
2022/11/03 06:11:43;;;;;;;21.30;12.35;;;;;;;10.55;98.84;100895.66;5034001;28;20029;-67
2022/11/03 06:14:21;;;;;;;19.83;12.38;;;;;;;10.56;98.35;100885.44;5052171;28;20112;-68
2022/11/03 06:16:47;;;;;;;21.02;12.38;;;;;;;10.54;99.09;100890.44;5047423;28;20491;-67
2022/11/03 06:19:25;;;;;;;22.67;12.70;;;;;;;10.53;98.99;100880.50;5051359;28;20069;-65
2022/11/03 06:21:52;;;;;;;22.30;12.20;;;;;;;10.52;99.27;100895.47;5051501;28;20028;-65
2022/11/03 06:24:21;;;;;;;23.67;13.00;;;;;;;10.48;99.38;100880.63;5051487;28;20062;-65
2022/11/03 06:26:48;;;;;;;21.65;12.30;;;;;;;10.51;99.59;100888.28;5051714;28;20143;-64
2022/11/03 06:29:17;;;;;;;21.42;12.95;;;;;;;10.51;99.45;100880.81;5051488;28;20032;-65
2022/11/03 06:31:46;;;;;;;21.35;12.73;;;;;;;10.48;99.23;100873.13;5051528;28;20489;-64
2022/11/03 06:34:19;;;;;;;22.10;13.20;;;;;;;10.52;99.77;100884.41;5051092;28;20037;-64
2022/11/03 06:36:45;;;;;;;;;;;;;;;10.51;98.54;100868.94;5051703;28;20021;-66
2022/11/03 06:39:25;;;;;;;21.42;13.07;;;;;;;10.51;99.35;100872.53;5033278;28;20272;-66
2022/11/03 06:41:51;;;;;;;22.40;13.00;;;;;;;10.51;99.26;100871.69;5030206;28;20075;-66
2022/11/03 06:44:27;;;;;;;21.58;12.85;;;;;;;10.47;99.78;100879.78;5051416;28;20028;-66
2022/11/03 06:47:00;;;;;;;21.25;12.75;;;;;;;10.43;99.79;100876.00;5051540;28;20468;-67
2022/11/03 06:49:33;;;;;;;21.10;12.63;;;;;;;10.45;99.77;100868.19;5051512;28;20468;-66
2022/11/03 06:52:13;;;;;;;23.08;13.07;;;;;;;10.42;99.79;100869.63;5051524;28;20472;-66
2022/11/03 06:54:39;;;;;;;21.63;13.18;;;;;;;10.42;99.98;100857.75;5051103;28;20060;-66
2022/11/03 06:57:12;;;;;;;19.80;12.18;;;;;;;10.41;99.59;100859.69;5051143;28;20131;-63
2022/11/03 06:59:37;;;;;;;22.35;13.38;;;;;;;10.44;99.82;100859.09;5051384;28;20052;-68
2022/11/03 07:02:33;;;;;;;20.13;12.00;;;;;;;10.43;99.76;100851.91;5051165;28;20025;-67
2022/11/03 07:04:59;;;;;;;23.50;12.18;;;;;;;10.48;99.24;100858.50;5051388;28;20052;-67
2022/11/03 07:07:24;;;;;;;22.40;13.30;;;;;;;10.46;99.58;100853.25;5051840;28;20041;-65
2022/11/03 07:09:50;;;;;;;21.38;12.18;;;;;;;10.47;99.68;100854.88;5058114;28;20022;-67
2022/11/03 07:12:17;;;;;;;20.67;12.18;;;;;;;10.49;99.18;100852.66;5053512;28;20033;-66
2022/11/03 07:14:43;;;;;;;21.42;12.20;;;;;;;10.51;99.16;100852.31;5055062;28;20071;-67
2022/11/03 07:17:19;;;;;;;19.40;11.75;;;;;;;10.51;99.00;100855.94;5051253;28;20118;-66
2022/11/03 07:19:45;;;;;;;20.60;12.50;;;;;;;10.53;99.04;100848.13;5032849;28;20120;-67
2022/11/03 07:22:24;;;;;;;21.85;12.25;;;;;;;10.55;99.35;100843.13;5034111;28;20095;-67
2022/11/03 07:24:53;;;;;;;21.23;12.05;;;;;;;10.54;98.92;100835.94;5040538;28;20076;-66
2022/11/03 07:27:37;;;;;;;21.65;11.30;;;;;;;10.61;99.01;100841.06;5039800;28;20043;-66
2022/11/03 07:30:21;;;;;;;22.05;11.77;;;;;;;10.62;98.51;100834.41;5038822;28;20045;-66
2022/11/03 07:32:50;;;;;;;22.55;11.48;;;;;;;10.63;98.47;100835.25;5039789;28;20112;-66
2022/11/03 07:35:15;;;;;;;22.10;11.80;;;;;;;10.70;97.93;100844.75;5040427;28;20029;-66
2022/11/03 07:37:40;;;;;;;22.37;12.20;;;;;;;10.71;98.04;100832.56;5036095;28;20026;-67
2022/11/03 07:40:12;;;;;;;23.23;12.13;;;;;;;10.74;97.93;100831.13;5032665;28;20632;-67
2022/11/03 07:42:38;;;;;;;21.52;11.70;;;;;;;10.75;97.98;100814.25;5031943;28;20037;-68
2022/11/03 07:45:32;;;;;;;21.42;11.30;;;;;;;10.79;97.60;100816.38;5038457;28;20021;-67
2022/11/03 07:47:59;;;;;;;20.83;11.75;;;;;;;10.81;97.35;100814.13;5036741;28;20045;-67
2022/11/03 07:50:24;;;;;;;21.83;11.60;;;;;;;10.83;97.66;100814.63;5036968;28;20032;-68
2022/11/03 07:52:49;;;;;;;21.75;11.60;;;;;;;10.85;97.06;100813.19;5054638;28;20029;-67
2022/11/03 07:55:15;;;;;;;23.65;12.20;;;;;;;10.88;97.55;100817.28;5054334;28;20128;-68
2022/11/03 07:57:40;;;;;;;20.58;11.65;;;;;;;10.89;97.36;100817.00;5036300;28;20084;-67
2022/11/03 08:00:13;;;;;;;21.58;11.40;;;;;;;10.88;97.23;100820.06;5035991;28;20036;-68
2022/11/03 08:02:54;;;;;;;23.80;11.90;;;;;;;10.87;96.65;100816.47;5054012;28;20123;-68
2022/11/03 08:05:19;;;;;;;21.85;11.30;;;;;;;10.99;96.79;100815.94;5035454;28;20071;-68
2022/11/03 08:07:44;;;;;;;21.05;11.48;;;;;;;11.00;96.10;100816.78;5045493;28;20127;-69
2022/11/03 08:10:09;;;;;;;21.20;11.50;;;;;;;11.03;96.29;100824.44;5053486;28;20037;-66
2022/11/03 08:12:35;;;;;;;21.83;11.38;;;;;;;11.04;96.22;100818.63;5053190;28;20028;-68
2022/11/03 08:15:00;;;;;;;20.33;11.48;;;;;;;11.08;95.95;100814.09;5053262;28;20029;-67
2022/11/03 08:17:25;;;;;;;20.85;11.45;;;;;;;11.12;95.73;100810.72;5052991;28;20028;-66
2022/11/03 08:19:51;;;;;;;21.38;11.60;;;;;;;11.16;95.64;100803.41;5052911;28;20431;-67
2022/11/03 08:22:17;;;;;;;20.45;11.07;;;;;;;11.18;95.42;100792.84;5051414;28;20056;-68
2022/11/03 08:24:42;;;;;;;19.75;11.23;;;;;;;11.21;95.19;100790.25;5052816;28;20039;-68
2022/11/03 08:27:07;;;;;;;23.00;11.25;;;;;;;11.24;94.81;100794.38;5052420;28;20419;-67
2022/11/03 08:29:32;;;;;;;20.70;11.75;;;;;;;11.27;94.55;100771.59;5052839;28;20033;-67
2022/11/03 08:31:58;;;;;;;21.45;11.70;;;;;;;11.33;94.49;100769.50;5052616;28;20044;-67
2022/11/03 08:34:23;;;;;;;23.05;11.27;;;;;;;11.38;93.91;100752.78;5051978;28;20095;-66
2022/11/03 08:36:48;;;;;;;20.40;11.10;;;;;;;11.42;93.68;100756.56;5052056;28;20036;-67
2022/11/03 08:39:14;;;;;;;20.48;10.95;;;;;;;11.48;93.33;100755.28;5052120;28;20036;-66
2022/11/03 08:41:39;;;;;;;22.70;10.98;;;;;;;11.49;93.06;100748.63;5051886;28;20036;-67
2022/11/03 08:44:04;;;;;;;19.63;10.52;;;;;;;11.54;92.91;100737.44;5050804;28;20499;-68
2022/11/03 08:46:30;;;;;;;22.77;11.00;;;;;;;11.60;92.40;100728.97;5051727;28;20052;-67
2022/11/03 08:48:55;;;;;;;20.20;10.65;;;;;;;11.65;92.00;100712.22;5051867;28;20112;-68
2022/11/03 08:51:21;;;;;;;22.95;11.45;;;;;;;11.70;91.63;100712.91;5052371;28;20020;-68
2022/11/03 08:53:51;;;;;;;22.42;11.20;;;;;;;11.75;91.63;100700.88;5051814;28;20380;-68
2022/11/03 08:56:16;;;;;;;20.75;11.30;;;;;;;11.82;90.76;100694.84;5051533;28;20602;-68
2022/11/03 08:58:42;;;;;;;21.20;11.10;;;;;;;11.88;90.85;100685.28;5050816;28;20037;-67
2022/11/03 09:01:08;;;;;;;24.02;11.98;;;;;;;11.92;90.65;100686.28;5051460;28;20049;-68
2022/11/03 09:03:33;;;;;;;20.48;11.20;;;;;;;11.99;90.30;100691.41;5051369;28;20029;-68
2022/11/03 09:05:58;;;;;;;22.15;11.63;;;;;;;12.05;89.66;100678.22;5051537;28;20043;-68
2022/11/03 09:08:24;;;;;;;21.25;11.07;;;;;;;12.08;89.39;100660.94;5051379;28;20032;-67
2022/11/03 09:10:49;;;;;;;18.83;10.95;;;;;;;12.18;88.94;100660.66;5051222;28;20035;-67
2022/11/03 09:13:14;;;;;;;20.02;11.05;;;;;;;12.25;88.43;100652.66;5044693;28;20025;-67
2022/11/03 09:15:39;;;;;;;20.73;11.27;;;;;;;12.33;88.17;100645.50;5049472;28;20029;-67
2022/11/03 09:18:05;;;;;;;21.73;11.20;;;;;;;12.40;87.93;100628.38;5050656;28;20091;-68
2022/11/03 09:20:30;;;;;;;21.48;11.23;;;;;;;12.46;87.28;100641.78;5050954;28;20059;-67
2022/11/03 09:22:55;;;;;;;22.08;10.77;;;;;;;12.52;86.66;100627.72;5047693;28;20025;-67
2022/11/03 09:25:21;;;;;;;20.15;11.27;;;;;;;12.57;86.11;100622.84;5049090;28;20503;-67
2022/11/03 09:27:46;;;;;;;22.80;11.07;;;;;;;12.61;85.46;100618.28;5050782;28;20052;-66
2022/11/03 09:30:12;;;;;;;18.50;10.63;;;;;;;12.68;85.13;100617.81;5050297;28;20044;-67
2022/11/03 09:32:37;;;;;;;19.52;10.85;;;;;;;12.72;85.25;100601.31;5050593;28;20067;-67
2022/11/03 09:35:04;;;;;;;20.38;10.80;;;;;;;12.76;84.62;100588.41;5050380;28;20074;-67
2022/11/03 09:37:29;;;;;;;17.58;10.68;;;;;;;12.79;84.89;100582.19;5050483;28;20033;-67
2022/11/03 09:39:55;;;;;;;21.17;11.18;;;;;;;12.81;84.41;100574.38;5050375;28;20032;-67
2022/11/03 09:42:21;;;;;;;19.60;11.02;;;;;;;12.84;83.93;100570.13;5050402;28;20503;-67
2022/11/03 09:44:47;;;;;;;19.45;11.07;;;;;;;12.87;83.55;100577.78;5050378;28;20025;-67
2022/11/03 09:47:26;;;;;;;18.65;10.93;;;;;;;12.90;83.58;100566.00;5050286;28;20028;-67
2022/11/03 09:49:51;;;;;;;20.52;11.20;;;;;;;12.92;83.13;100555.41;5050212;28;20029;-67
2022/11/03 09:52:20;;;;;;;22.00;10.90;;;;;;;12.97;82.74;100568.28;5050002;28;20036;-67
2022/11/03 09:54:45;;;;;;;18.92;10.48;;;;;;;13.00;82.05;100562.91;5050594;28;20441;-67
2022/11/03 09:57:13;;;;;;;18.90;10.43;;;;;;;12.91;82.31;100537.94;5042585;28;20488;-67
2022/11/03 09:59:44;;;;;;;20.73;10.13;;;;;;;12.94;82.19;100542.00;5050049;28;20409;-67
2022/11/03 10:02:18;;;;;;;19.02;10.27;;;;;;;13.00;82.46;100539.88;5049941;28;20114;-67
2022/11/03 10:04:43;;;;;;;20.70;10.50;;;;;;;12.97;81.50;100541.38;5049929;28;20443;-67
2022/11/03 10:07:09;;;;;;;19.85;10.32;;;;;;;12.95;82.40;100532.53;5049660;28;20036;-67
2022/11/03 10:09:45;;;;;;;18.60;10.30;;;;;;;12.90;82.81;100530.75;5049101;28;20024;-68
2022/11/03 10:12:11;;;;;;;22.00;11.13;;;;;;;12.93;82.60;100527.31;5049971;28;20033;-67
2022/11/03 10:14:36;;;;;;;19.52;10.27;;;;;;;12.91;82.51;100526.84;5049817;28;20025;-67
2022/11/03 10:17:01;;;;;;;20.20;10.57;;;;;;;12.90;82.62;100516.03;5049342;28;20025;-67
2022/11/03 10:19:27;;;;;;;21.42;10.70;;;;;;;12.89;82.47;100522.75;5049711;28;20061;-67
2022/11/03 10:21:52;;;;;;;20.20;10.27;;;;;;;12.88;82.77;100512.81;5049684;28;20131;-67
2022/11/03 10:24:18;;;;;;;19.05;10.50;;;;;;;12.84;81.99;100507.09;5047809;28;20033;-67
2022/11/03 10:26:51;;;;;;;22.58;11.02;;;;;;;12.82;82.34;100498.28;5049812;28;20068;-67
2022/11/03 10:29:18;;;;;;;21.75;11.00;;;;;;;12.79;82.44;100499.75;5049661;28;20112;-67
2022/11/03 10:31:48;;;;;;;21.15;11.77;;;;;;;12.76;82.45;100492.09;5048218;28;20037;-67
2022/11/03 10:34:38;;;;;;;19.33;10.85;;;;;;;12.78;82.58;100488.97;5049489;28;20033;-67
2022/11/03 10:37:23;;;;;;;19.35;10.90;;;;;;;12.76;82.19;100488.47;5049668;28;20021;-67
2022/11/03 10:39:50;;;;;;;21.58;11.48;;;;;;;12.77;81.85;100474.28;5050149;28;20029;-67
2022/11/03 10:42:24;;;;;;;18.02;10.15;;;;;;;12.82;81.48;100473.28;5049532;28;20053;-68
2022/11/03 10:44:54;;;;;;;18.45;10.35;;;;;;;12.87;81.01;100463.97;5049677;28;20031;-69
2022/11/03 10:47:30;;;;;;;19.88;10.70;;;;;;;12.94;80.78;100467.06;5049649;28;20037;-67
2022/11/03 10:49:55;;;;;;;22.95;10.93;;;;;;;13.01;79.72;100449.88;5049441;28;20115;-67
2022/11/03 10:52:26;;;;;;;20.85;10.80;;;;;;;13.08;80.06;100453.75;5049499;28;20103;-68
2022/11/03 10:54:53;;;;;;;22.50;11.35;;;;;;;13.18;79.60;100451.75;5049766;28;20052;-68
2022/11/03 10:57:21;;;;;;;21.17;11.05;;;;;;;13.29;79.14;100452.22;5049431;28;20033;-68
2022/11/03 10:59:48;;;;;;;23.02;11.30;;;;;;;13.36;77.96;100442.22;5049169;28;20027;-67
2022/11/03 11:02:19;;;;;;;18.30;10.50;;;;;;;13.53;77.87;100451.63;5049155;28;20045;-68
2022/11/03 11:04:46;;;;;;;18.70;10.35;;;;;;;13.62;75.99;100446.00;5049245;28;20021;-68
2022/11/03 11:07:25;;;;;;;18.95;10.25;;;;;;;13.67;76.46;100435.50;5049043;28;20119;-68
2022/11/03 11:09:51;;;;;;;19.40;10.07;;;;;;;13.72;76.07;100429.75;5049221;28;20029;-68
2022/11/03 11:12:23;;;;;;;19.95;10.40;;;;;;;13.75;75.89;100433.81;5046769;28;20115;-67
2022/11/03 11:15:06;;;;;;;18.98;10.50;;;;;;;13.71;75.90;100413.41;5049152;28;20075;-68
2022/11/03 11:17:46;;;;;;;18.40;10.25;;;;;;;13.80;75.35;100427.25;5048965;28;20024;-67
2022/11/03 11:20:21;;;;;;;18.33;10.45;;;;;;;13.87;74.19;100419.19;5049643;28;20451;-68
2022/11/03 11:22:49;;;;;;;18.77;9.70;;;;;;;13.93;73.71;100419.78;5045658;28;20036;-67
2022/11/03 11:25:17;;;;;;;17.63;9.85;;;;;;;13.95;73.70;100414.72;5043286;28;20033;-67
2022/11/03 11:27:45;;;;;;;18.60;10.40;;;;;;;14.04;73.97;100412.66;5052449;28;20032;-68
2022/11/03 11:30:19;;;;;;;15.38;9.80;;;;;;;14.06;73.81;100404.81;5052335;28;20064;-67
2022/11/03 11:32:44;;;;;;;18.25;10.10;;;;;;;14.08;73.22;100401.66;5050651;28;20067;-68
2022/11/03 11:35:16;;;;;;;16.77;9.73;;;;;;;14.11;73.65;100387.09;5052487;28;20068;-67
2022/11/03 11:37:42;;;;;;;19.85;10.10;;;;;;;14.12;72.82;100377.59;5052234;28;20374;-67
2022/11/03 11:40:33;;;;;;;18.13;10.35;;;;;;;14.12;72.20;100381.19;5052041;28;20120;-67
2022/11/03 11:43:01;;;;;;;17.17;9.48;;;;;;;14.14;72.38;100367.75;5051234;28;20037;-67